sensor_id;sensor_type;location;lat;lon;timestamp;temperature;humidity
7516;DHT22;3799;47.184;8.538;2023-02-01T00:01:16;4.40;99.90
7516;DHT22;3799;47.184;8.538;2023-02-01T00:03:43;4.10;99.90
7516;DHT22;3799;47.184;8.538;2023-02-01T00:06:10;4.30;99.90
7516;DHT22;3799;47.184;8.538;2023-02-01T00:08:38;4.20;99.90
7516;DHT22;3799;47.184;8.538;2023-02-01T00:11:08;4.50;99.90
7516;DHT22;3799;47.184;8.538;2023-02-01T00:13:36;4.30;99.90
7516;DHT22;3799;47.184;8.538;2023-02-01T00:16:16;4.40;99.90
7516;DHT22;3799;47.184;8.538;2023-02-01T00:18:48;4.60;99.90
7516;DHT22;3799;47.184;8.538;2023-02-01T00:21:18;4.40;99.90
7516;DHT22;3799;47.184;8.538;2023-02-01T00:23:45;4.40;99.90
7516;DHT22;3799;47.184;8.538;2023-02-01T00:26:18;4.50;99.90
7516;DHT22;3799;47.184;8.538;2023-02-01T00:28:46;4.50;99.90
7516;DHT22;3799;47.184;8.538;2023-02-01T00:31:13;4.40;99.90
7516;DHT22;3799;47.184;8.538;2023-02-01T00:33:41;4.00;99.90
7516;DHT22;3799;47.184;8.538;2023-02-01T00:36:09;4.20;99.90
7516;DHT22;3799;47.184;8.538;2023-02-01T00:38:37;4.40;99.90
7516;DHT22;3799;47.184;8.538;2023-02-01T00:41:16;4.00;99.90
7516;DHT22;3799;47.184;8.538;2023-02-01T00:43:44;4.40;99.90
7516;DHT22;3799;47.184;8.538;2023-02-01T00:46:13;4.40;99.90
7516;DHT22;3799;47.184;8.538;2023-02-01T00:48:41;4.10;99.90
7516;DHT22;3799;47.184;8.538;2023-02-01T00:51:13;4.20;99.90
7516;DHT22;3799;47.184;8.538;2023-02-01T00:53:42;4.20;99.90
7516;DHT22;3799;47.184;8.538;2023-02-01T00:56:10;4.20;99.90
7516;DHT22;3799;47.184;8.538;2023-02-01T00:58:37;4.20;99.90
7516;DHT22;3799;47.184;8.538;2023-02-01T01:01:13;4.10;99.90
7516;DHT22;3799;47.184;8.538;2023-02-01T01:03:43;3.90;99.90
7516;DHT22;3799;47.184;8.538;2023-02-01T01:06:14;4.00;99.90
7516;DHT22;3799;47.184;8.538;2023-02-01T01:08:43;3.90;99.90
7516;DHT22;3799;47.184;8.538;2023-02-01T01:11:13;4.00;99.90
7516;DHT22;3799;47.184;8.538;2023-02-01T01:13:40;3.90;99.90
7516;DHT22;3799;47.184;8.538;2023-02-01T01:16:09;3.60;99.90
7516;DHT22;3799;47.184;8.538;2023-02-01T01:18:37;3.50;99.90
7516;DHT22;3799;47.184;8.538;2023-02-01T01:21:05;3.70;99.90
7516;DHT22;3799;47.184;8.538;2023-02-01T01:23:33;3.50;99.90
7516;DHT22;3799;47.184;8.538;2023-02-01T01:26:24;3.60;99.90
7516;DHT22;3799;47.184;8.538;2023-02-01T01:28:52;3.50;99.90
7516;DHT22;3799;47.184;8.538;2023-02-01T01:31:20;3.70;99.90
7516;DHT22;3799;47.184;8.538;2023-02-01T01:33:49;3.30;99.90
7516;DHT22;3799;47.184;8.538;2023-02-01T01:36:16;3.50;99.90
7516;DHT22;3799;47.184;8.538;2023-02-01T01:38:43;3.40;99.90
7516;DHT22;3799;47.184;8.538;2023-02-01T01:41:17;3.30;99.90
7516;DHT22;3799;47.184;8.538;2023-02-01T01:44:04;3.50;99.90
7516;DHT22;3799;47.184;8.538;2023-02-01T01:46:35;3.60;99.90
7516;DHT22;3799;47.184;8.538;2023-02-01T01:49:19;3.50;99.90
7516;DHT22;3799;47.184;8.538;2023-02-01T01:51:59;3.60;99.90
7516;DHT22;3799;47.184;8.538;2023-02-01T01:54:37;3.50;99.90
7516;DHT22;3799;47.184;8.538;2023-02-01T01:57:26;3.50;99.90
7516;DHT22;3799;47.184;8.538;2023-02-01T02:00:12;3.10;99.90
7516;DHT22;3799;47.184;8.538;2023-02-01T02:02:43;3.10;99.90
7516;DHT22;3799;47.184;8.538;2023-02-01T02:05:12;3.20;99.90
7516;DHT22;3799;47.184;8.538;2023-02-01T02:07:43;3.10;99.90
7516;DHT22;3799;47.184;8.538;2023-02-01T02:10:13;2.90;99.90
7516;DHT22;3799;47.184;8.538;2023-02-01T02:12:42;2.90;99.90
7516;DHT22;3799;47.184;8.538;2023-02-01T02:15:12;3.10;99.90
7516;DHT22;3799;47.184;8.538;2023-02-01T02:21:02;2.60;99.90
7516;DHT22;3799;47.184;8.538;2023-02-01T02:26:49;2.70;99.90
7516;DHT22;3799;47.184;8.538;2023-02-01T02:37:47;2.20;99.90
7516;DHT22;3799;47.184;8.538;2023-02-01T02:43:05;2.10;99.90
7516;DHT22;3799;47.184;8.538;2023-02-01T02:46:03;2.10;99.90
7516;DHT22;3799;47.184;8.538;2023-02-01T02:49:15;1.80;99.90
7516;DHT22;3799;47.184;8.538;2023-02-01T02:51:55;2.00;99.90
7516;DHT22;3799;47.184;8.538;2023-02-01T02:54:46;2.00;99.90
7516;DHT22;3799;47.184;8.538;2023-02-01T02:57:26;1.90;99.90
7516;DHT22;3799;47.184;8.538;2023-02-01T03:00:16;2.00;99.90
7516;DHT22;3799;47.184;8.538;2023-02-01T03:03:03;1.70;99.90
7516;DHT22;3799;47.184;8.538;2023-02-01T03:05:49;1.70;99.90
7516;DHT22;3799;47.184;8.538;2023-02-01T03:16:08;1.80;99.90
7516;DHT22;3799;47.184;8.538;2023-02-01T03:21:22;1.80;99.90
7516;DHT22;3799;47.184;8.538;2023-02-01T03:23:53;1.90;99.90
7516;DHT22;3799;47.184;8.538;2023-02-01T03:26:22;1.90;99.90
7516;DHT22;3799;47.184;8.538;2023-02-01T03:29:41;1.90;99.90
7516;DHT22;3799;47.184;8.538;2023-02-01T03:32:07;2.10;99.90
7516;DHT22;3799;47.184;8.538;2023-02-01T03:34:36;1.80;99.90
7516;DHT22;3799;47.184;8.538;2023-02-01T03:37:06;2.10;99.90
7516;DHT22;3799;47.184;8.538;2023-02-01T03:39:58;2.10;99.90
7516;DHT22;3799;47.184;8.538;2023-02-01T03:42:40;2.10;99.90
7516;DHT22;3799;47.184;8.538;2023-02-01T03:45:13;2.10;99.90
7516;DHT22;3799;47.184;8.538;2023-02-01T03:47:47;2.20;99.90
7516;DHT22;3799;47.184;8.538;2023-02-01T03:50:23;2.10;99.90
7516;DHT22;3799;47.184;8.538;2023-02-01T03:52:53;2.20;99.90
7516;DHT22;3799;47.184;8.538;2023-02-01T03:55:25;2.30;99.90
7516;DHT22;3799;47.184;8.538;2023-02-01T03:57:59;2.30;99.90
7516;DHT22;3799;47.184;8.538;2023-02-01T04:00:28;2.40;99.90
7516;DHT22;3799;47.184;8.538;2023-02-01T04:02:55;2.20;99.90
7516;DHT22;3799;47.184;8.538;2023-02-01T04:05:23;2.20;99.90
7516;DHT22;3799;47.184;8.538;2023-02-01T04:07:50;2.30;99.90
7516;DHT22;3799;47.184;8.538;2023-02-01T04:10:17;2.30;99.90
7516;DHT22;3799;47.184;8.538;2023-02-01T04:12:45;2.50;99.90
7516;DHT22;3799;47.184;8.538;2023-02-01T04:15:12;2.40;99.90
7516;DHT22;3799;47.184;8.538;2023-02-01T04:17:40;2.40;99.90
7516;DHT22;3799;47.184;8.538;2023-02-01T04:20:08;2.20;99.90
7516;DHT22;3799;47.184;8.538;2023-02-01T04:22:35;2.30;99.90
7516;DHT22;3799;47.184;8.538;2023-02-01T04:25:03;2.30;99.90
7516;DHT22;3799;47.184;8.538;2023-02-01T04:27:32;2.20;99.90
7516;DHT22;3799;47.184;8.538;2023-02-01T04:29:59;2.10;99.90
7516;DHT22;3799;47.184;8.538;2023-02-01T04:32:27;2.10;99.90
7516;DHT22;3799;47.184;8.538;2023-02-01T04:35:05;2.20;99.90
7516;DHT22;3799;47.184;8.538;2023-02-01T04:37:33;2.30;99.90
7516;DHT22;3799;47.184;8.538;2023-02-01T04:40:00;2.50;99.90
7516;DHT22;3799;47.184;8.538;2023-02-01T04:42:27;2.00;99.90
7516;DHT22;3799;47.184;8.538;2023-02-01T04:44:55;2.30;99.90
7516;DHT22;3799;47.184;8.538;2023-02-01T04:47:22;2.20;99.90
7516;DHT22;3799;47.184;8.538;2023-02-01T04:49:48;2.40;99.90
7516;DHT22;3799;47.184;8.538;2023-02-01T04:52:15;2.40;99.90
7516;DHT22;3799;47.184;8.538;2023-02-01T04:54:42;2.40;99.90
7516;DHT22;3799;47.184;8.538;2023-02-01T04:57:09;2.60;99.90
7516;DHT22;3799;47.184;8.538;2023-02-01T04:59:38;2.70;99.90
7516;DHT22;3799;47.184;8.538;2023-02-01T05:02:05;2.50;99.90
7516;DHT22;3799;47.184;8.538;2023-02-01T05:04:32;2.60;99.90
7516;DHT22;3799;47.184;8.538;2023-02-01T05:06:59;2.50;99.90
7516;DHT22;3799;47.184;8.538;2023-02-01T05:09:27;2.60;99.90
7516;DHT22;3799;47.184;8.538;2023-02-01T05:11:54;2.70;99.90
7516;DHT22;3799;47.184;8.538;2023-02-01T05:14:39;2.60;99.90
7516;DHT22;3799;47.184;8.538;2023-02-01T05:17:20;2.80;99.90
7516;DHT22;3799;47.184;8.538;2023-02-01T05:19:47;2.70;99.90
7516;DHT22;3799;47.184;8.538;2023-02-01T05:22:14;2.70;99.90
7516;DHT22;3799;47.184;8.538;2023-02-01T05:24:41;2.80;99.90
7516;DHT22;3799;47.184;8.538;2023-02-01T05:27:09;2.60;99.90
7516;DHT22;3799;47.184;8.538;2023-02-01T05:29:36;2.80;99.90
7516;DHT22;3799;47.184;8.538;2023-02-01T05:32:03;2.80;99.90
7516;DHT22;3799;47.184;8.538;2023-02-01T05:34:47;2.80;99.90
7516;DHT22;3799;47.184;8.538;2023-02-01T05:37:14;3.00;99.90
7516;DHT22;3799;47.184;8.538;2023-02-01T05:39:41;3.20;99.90
7516;DHT22;3799;47.184;8.538;2023-02-01T05:42:09;3.20;99.90
7516;DHT22;3799;47.184;8.538;2023-02-01T05:44:36;3.20;99.90
7516;DHT22;3799;47.184;8.538;2023-02-01T05:47:03;3.10;99.90
7516;DHT22;3799;47.184;8.538;2023-02-01T05:49:30;3.20;99.90
7516;DHT22;3799;47.184;8.538;2023-02-01T05:51:57;3.40;99.90
7516;DHT22;3799;47.184;8.538;2023-02-01T05:54:26;3.20;99.90
7516;DHT22;3799;47.184;8.538;2023-02-01T05:56:54;3.40;99.90
7516;DHT22;3799;47.184;8.538;2023-02-01T05:59:21;3.60;99.90
7516;DHT22;3799;47.184;8.538;2023-02-01T06:01:48;3.50;99.90
7516;DHT22;3799;47.184;8.538;2023-02-01T06:04:15;3.50;99.90
7516;DHT22;3799;47.184;8.538;2023-02-01T06:06:44;3.30;99.90
7516;DHT22;3799;47.184;8.538;2023-02-01T06:09:12;3.40;99.90
7516;DHT22;3799;47.184;8.538;2023-02-01T06:11:39;3.30;99.90
7516;DHT22;3799;47.184;8.538;2023-02-01T06:14:08;3.60;99.90
7516;DHT22;3799;47.184;8.538;2023-02-01T06:16:35;3.70;99.90
7516;DHT22;3799;47.184;8.538;2023-02-01T06:19:02;3.80;99.90
7516;DHT22;3799;47.184;8.538;2023-02-01T06:21:29;3.50;99.90
7516;DHT22;3799;47.184;8.538;2023-02-01T06:23:56;3.80;99.90
7516;DHT22;3799;47.184;8.538;2023-02-01T06:26:24;3.90;99.90
7516;DHT22;3799;47.184;8.538;2023-02-01T06:28:52;3.70;99.90
7516;DHT22;3799;47.184;8.538;2023-02-01T06:31:22;3.60;99.90
7516;DHT22;3799;47.184;8.538;2023-02-01T06:33:51;3.80;99.90
7516;DHT22;3799;47.184;8.538;2023-02-01T06:36:18;3.90;99.90
7516;DHT22;3799;47.184;8.538;2023-02-01T06:38:48;3.90;99.90
7516;DHT22;3799;47.184;8.538;2023-02-01T06:41:15;3.70;99.90
7516;DHT22;3799;47.184;8.538;2023-02-01T06:43:43;3.70;99.90
7516;DHT22;3799;47.184;8.538;2023-02-01T06:46:12;3.80;99.90
7516;DHT22;3799;47.184;8.538;2023-02-01T06:48:39;3.70;99.90
7516;DHT22;3799;47.184;8.538;2023-02-01T06:51:15;3.70;99.90
7516;DHT22;3799;47.184;8.538;2023-02-01T06:53:44;3.60;99.90
7516;DHT22;3799;47.184;8.538;2023-02-01T06:56:11;4.00;99.90
7516;DHT22;3799;47.184;8.538;2023-02-01T06:58:39;3.60;99.90
7516;DHT22;3799;47.184;8.538;2023-02-01T07:01:10;3.60;99.90
7516;DHT22;3799;47.184;8.538;2023-02-01T07:03:38;3.60;99.90
7516;DHT22;3799;47.184;8.538;2023-02-01T07:06:06;3.70;99.90
7516;DHT22;3799;47.184;8.538;2023-02-01T07:08:36;3.70;99.90
7516;DHT22;3799;47.184;8.538;2023-02-01T07:11:18;3.70;99.90
7516;DHT22;3799;47.184;8.538;2023-02-01T07:13:47;3.70;99.90
7516;DHT22;3799;47.184;8.538;2023-02-01T07:16:22;3.70;99.90
7516;DHT22;3799;47.184;8.538;2023-02-01T07:19:06;3.60;99.90
7516;DHT22;3799;47.184;8.538;2023-02-01T07:21:37;3.80;99.90
7516;DHT22;3799;47.184;8.538;2023-02-01T07:24:12;3.90;99.90
7516;DHT22;3799;47.184;8.538;2023-02-01T07:26:41;4.10;99.90
7516;DHT22;3799;47.184;8.538;2023-02-01T07:29:08;3.60;99.90
7516;DHT22;3799;47.184;8.538;2023-02-01T07:31:35;3.60;99.90
7516;DHT22;3799;47.184;8.538;2023-02-01T07:34:03;3.60;99.90
7516;DHT22;3799;47.184;8.538;2023-02-01T07:36:30;3.60;99.90
7516;DHT22;3799;47.184;8.538;2023-02-01T07:38:57;4.00;99.90
7516;DHT22;3799;47.184;8.538;2023-02-01T07:41:24;3.90;99.90
7516;DHT22;3799;47.184;8.538;2023-02-01T07:43:55;3.70;99.90
7516;DHT22;3799;47.184;8.538;2023-02-01T07:46:23;3.80;99.90
7516;DHT22;3799;47.184;8.538;2023-02-01T07:48:50;3.70;99.90
7516;DHT22;3799;47.184;8.538;2023-02-01T07:51:17;3.80;99.90
7516;DHT22;3799;47.184;8.538;2023-02-01T07:53:44;3.90;99.90
7516;DHT22;3799;47.184;8.538;2023-02-01T07:56:17;4.10;99.90
7516;DHT22;3799;47.184;8.538;2023-02-01T07:58:52;3.90;99.90
7516;DHT22;3799;47.184;8.538;2023-02-01T08:01:24;3.90;99.90
7516;DHT22;3799;47.184;8.538;2023-02-01T08:03:54;3.90;99.90
7516;DHT22;3799;47.184;8.538;2023-02-01T08:06:23;4.20;99.90
7516;DHT22;3799;47.184;8.538;2023-02-01T08:08:51;4.20;99.90
7516;DHT22;3799;47.184;8.538;2023-02-01T08:11:35;4.20;99.90
7516;DHT22;3799;47.184;8.538;2023-02-01T08:14:05;3.90;99.90
7516;DHT22;3799;47.184;8.538;2023-02-01T08:16:34;4.20;99.90
7516;DHT22;3799;47.184;8.538;2023-02-01T08:19:03;4.00;99.90
7516;DHT22;3799;47.184;8.538;2023-02-01T08:21:30;4.20;99.90
7516;DHT22;3799;47.184;8.538;2023-02-01T08:24:09;4.40;99.90
7516;DHT22;3799;47.184;8.538;2023-02-01T08:26:37;4.20;99.90
7516;DHT22;3799;47.184;8.538;2023-02-01T08:29:05;4.50;99.90
7516;DHT22;3799;47.184;8.538;2023-02-01T08:31:33;4.60;99.90
7516;DHT22;3799;47.184;8.538;2023-02-01T08:34:02;4.40;99.90
7516;DHT22;3799;47.184;8.538;2023-02-01T08:36:32;4.30;99.90
7516;DHT22;3799;47.184;8.538;2023-02-01T08:38:59;4.50;99.90
7516;DHT22;3799;47.184;8.538;2023-02-01T08:41:29;4.60;99.90
7516;DHT22;3799;47.184;8.538;2023-02-01T08:43:57;4.80;99.90
7516;DHT22;3799;47.184;8.538;2023-02-01T08:46:24;4.70;99.90
7516;DHT22;3799;47.184;8.538;2023-02-01T08:48:52;4.80;99.90
7516;DHT22;3799;47.184;8.538;2023-02-01T08:51:23;4.90;99.90
7516;DHT22;3799;47.184;8.538;2023-02-01T08:53:50;4.70;99.90
7516;DHT22;3799;47.184;8.538;2023-02-01T08:56:18;4.80;99.90
7516;DHT22;3799;47.184;8.538;2023-02-01T08:58:46;5.00;99.90
7516;DHT22;3799;47.184;8.538;2023-02-01T09:01:14;4.80;99.90
7516;DHT22;3799;47.184;8.538;2023-02-01T09:03:43;4.80;99.90
7516;DHT22;3799;47.184;8.538;2023-02-01T09:06:14;4.90;99.90
7516;DHT22;3799;47.184;8.538;2023-02-01T09:08:42;5.00;99.90
7516;DHT22;3799;47.184;8.538;2023-02-01T09:11:15;4.90;99.90
7516;DHT22;3799;47.184;8.538;2023-02-01T09:13:43;4.80;99.90
7516;DHT22;3799;47.184;8.538;2023-02-01T09:16:11;5.00;99.90
7516;DHT22;3799;47.184;8.538;2023-02-01T09:18:38;5.00;99.90
7516;DHT22;3799;47.184;8.538;2023-02-01T09:21:21;4.90;99.90
7516;DHT22;3799;47.184;8.538;2023-02-01T09:23:51;5.10;99.90
7516;DHT22;3799;47.184;8.538;2023-02-01T09:26:18;5.00;99.90
7516;DHT22;3799;47.184;8.538;2023-02-01T09:28:56;5.10;99.90
7516;DHT22;3799;47.184;8.538;2023-02-01T09:31:23;5.10;99.90
7516;DHT22;3799;47.184;8.538;2023-02-01T09:33:50;4.90;99.90
7516;DHT22;3799;47.184;8.538;2023-02-01T09:36:20;5.10;99.90
7516;DHT22;3799;47.184;8.538;2023-02-01T09:38:47;5.20;99.90
7516;DHT22;3799;47.184;8.538;2023-02-01T09:46:47;5.40;99.90
7516;DHT22;3799;47.184;8.538;2023-02-01T09:49:22;5.30;99.90
7516;DHT22;3799;47.184;8.538;2023-02-01T09:51:52;5.60;99.90
7516;DHT22;3799;47.184;8.538;2023-02-01T09:54:46;5.60;99.90
7516;DHT22;3799;47.184;8.538;2023-02-01T09:57:19;5.40;99.90
7516;DHT22;3799;47.184;8.538;2023-02-01T09:59:54;5.70;99.90
7516;DHT22;3799;47.184;8.538;2023-02-01T10:02:26;5.50;99.90
7516;DHT22;3799;47.184;8.538;2023-02-01T10:04:57;5.60;99.90
7516;DHT22;3799;47.184;8.538;2023-02-01T10:08:01;5.70;99.90
7516;DHT22;3799;47.184;8.538;2023-02-01T10:10:51;6.00;99.90
7516;DHT22;3799;47.184;8.538;2023-02-01T10:16:19;6.00;99.90
7516;DHT22;3799;47.184;8.538;2023-02-01T10:22:05;6.00;99.90
7516;DHT22;3799;47.184;8.538;2023-02-01T10:24:53;6.00;99.90
7516;DHT22;3799;47.184;8.538;2023-02-01T10:27:30;5.90;99.90
7516;DHT22;3799;47.184;8.538;2023-02-01T10:30:20;6.20;99.90
7516;DHT22;3799;47.184;8.538;2023-02-01T10:32:55;6.10;99.90
7516;DHT22;3799;47.184;8.538;2023-02-01T10:35:28;6.10;99.90
7516;DHT22;3799;47.184;8.538;2023-02-01T10:38:00;6.00;99.90
7516;DHT22;3799;47.184;8.538;2023-02-01T10:40:29;6.00;99.90
7516;DHT22;3799;47.184;8.538;2023-02-01T10:43:00;6.40;99.90
7516;DHT22;3799;47.184;8.538;2023-02-01T10:45:30;6.20;99.90
7516;DHT22;3799;47.184;8.538;2023-02-01T10:48:00;6.30;99.90
7516;DHT22;3799;47.184;8.538;2023-02-01T10:53:07;6.50;99.90
7516;DHT22;3799;47.184;8.538;2023-02-01T10:55:50;6.40;99.90
7516;DHT22;3799;47.184;8.538;2023-02-01T10:58:31;6.70;99.90
7516;DHT22;3799;47.184;8.538;2023-02-01T11:01:00;6.70;99.90
7516;DHT22;3799;47.184;8.538;2023-02-01T11:03:44;6.70;99.90
7516;DHT22;3799;47.184;8.538;2023-02-01T11:06:24;7.00;99.90
7516;DHT22;3799;47.184;8.538;2023-02-01T11:08:58;7.10;99.90
7516;DHT22;3799;47.184;8.538;2023-02-01T11:11:25;7.30;99.90
7516;DHT22;3799;47.184;8.538;2023-02-01T11:14:14;7.20;99.90
7516;DHT22;3799;47.184;8.538;2023-02-01T11:16:53;7.40;99.90
7516;DHT22;3799;47.184;8.538;2023-02-01T11:19:21;7.20;99.40
7516;DHT22;3799;47.184;8.538;2023-02-01T11:21:53;7.40;99.70
7516;DHT22;3799;47.184;8.538;2023-02-01T11:24:27;7.30;99.70
7516;DHT22;3799;47.184;8.538;2023-02-01T11:27:02;7.20;99.60
7516;DHT22;3799;47.184;8.538;2023-02-01T11:29:38;7.20;99.40
